createdAt,value
2023-02-16T00:01:51.116Z,33.95
2023-02-16T00:04:43.428Z,35.75
2023-02-16T00:07:09.703Z,31.83
2023-02-16T00:09:35.898Z,34.78
2023-02-16T00:12:20.973Z,36.33
2023-02-16T00:14:47.217Z,32.90
2023-02-16T00:17:13.457Z,32.88
2023-02-16T00:19:40.649Z,38.75
2023-02-16T00:22:08.913Z,35.67
2023-02-16T00:24:35.288Z,37.70
2023-02-16T00:27:01.674Z,35.85
2023-02-16T00:29:27.850Z,31.50
2023-02-16T00:31:54.689Z,30.40
2023-02-16T00:34:26.943Z,37.55
2023-02-16T00:36:53.600Z,34.60
2023-02-16T00:39:19.812Z,35.40
2023-02-16T00:41:52.141Z,37.28
2023-02-16T00:44:20.550Z,35.80
2023-02-16T00:46:47.193Z,38.33
2023-02-16T00:49:21.543Z,35.92
2023-02-16T00:51:48.363Z,37.15
2023-02-16T00:54:14.617Z,39.28
2023-02-16T00:56:41.747Z,35.88
2023-02-16T00:59:11.186Z,40.83
2023-02-16T01:01:37.802Z,39.08
2023-02-16T01:04:06.000Z,35.90
2023-02-16T01:06:51.047Z,38.50
2023-02-16T01:09:37.655Z,38.50
2023-02-16T01:12:05.655Z,39.15
2023-02-16T01:14:32.829Z,35.67
2023-02-16T01:16:59.049Z,37.97
2023-02-16T01:19:25.519Z,35.63
2023-02-16T01:21:51.752Z,37.10
2023-02-16T01:24:17.992Z,36.58
2023-02-16T01:26:47.434Z,36.15
2023-02-16T01:29:15.293Z,38.67
2023-02-16T01:31:41.615Z,37.83
2023-02-16T01:34:07.992Z,34.72
2023-02-16T01:36:36.490Z,35.88
2023-02-16T01:39:03.365Z,37.17
2023-02-16T01:41:40.211Z,36.92
2023-02-16T01:44:12.669Z,36.83
2023-02-16T01:46:43.253Z,39.40
2023-02-16T01:49:16.678Z,39.00
2023-02-16T01:51:52.327Z,36.90
2023-02-16T01:54:27.259Z,37.10
2023-02-16T01:57:00.054Z,43.63
2023-02-16T01:59:38.622Z,41.40
2023-02-16T02:02:08.440Z,38.67
2023-02-16T02:04:53.153Z,38.92
2023-02-16T02:07:25.191Z,42.72
2023-02-16T02:10:00.813Z,41.42
2023-02-16T02:12:45.848Z,40.03
2023-02-16T02:15:12.473Z,36.72
2023-02-16T02:17:38.747Z,39.15
2023-02-16T02:20:51.688Z,34.90
2023-02-16T02:23:33.012Z,35.70
2023-02-16T02:26:17.849Z,34.67
2023-02-16T02:28:51.654Z,36.58
2023-02-16T02:31:45.837Z,36.35
2023-02-16T02:34:12.096Z,34.92
2023-02-16T02:36:45.624Z,39.78
2023-02-16T02:39:17.633Z,34.45
2023-02-16T02:42:03.406Z,36.63
2023-02-16T02:44:30.129Z,36.72
2023-02-16T02:46:56.728Z,39.08
2023-02-16T02:49:23.032Z,36.80
2023-02-16T02:51:49.607Z,42.22
2023-02-16T02:54:34.707Z,35.08
2023-02-16T02:57:22.785Z,39.17
2023-02-16T03:00:16.242Z,38.97
2023-02-16T03:02:43.085Z,40.85
2023-02-16T03:05:11.665Z,38.85
2023-02-16T03:07:47.245Z,35.35
2023-02-16T03:10:39.607Z,35.50
2023-02-16T03:13:07.681Z,40.97
2023-02-16T03:15:34.666Z,41.28
2023-02-16T03:18:20.948Z,40.53
2023-02-16T03:21:06.045Z,44.83
2023-02-16T03:23:52.030Z,40.25
2023-02-16T03:26:37.588Z,41.58
2023-02-16T03:29:18.419Z,40.72
2023-02-16T03:31:45.681Z,43.53
2023-02-16T03:34:12.497Z,43.08
2023-02-16T03:36:40.979Z,45.30
2023-02-16T03:39:07.605Z,40.60
2023-02-16T03:41:38.032Z,40.85
2023-02-16T03:44:04.319Z,42.27
2023-02-16T03:46:30.644Z,43.40
2023-02-16T03:48:56.919Z,42.40
2023-02-16T03:51:23.181Z,45.97
2023-02-16T03:53:50.093Z,39.97
2023-02-16T03:56:16.366Z,47.10
2023-02-16T03:58:42.567Z,44.17
2023-02-16T04:01:08.808Z,44.28
2023-02-16T04:03:35.059Z,42.97
2023-02-16T04:06:01.278Z,47.90
2023-02-16T04:08:27.547Z,43.30
2023-02-16T04:10:57.389Z,42.53
2023-02-16T04:13:24.065Z,44.67
2023-02-16T04:15:50.284Z,44.60
2023-02-16T04:18:16.556Z,45.78
2023-02-16T04:20:43.170Z,45.50
2023-02-16T04:23:09.447Z,44.88
2023-02-16T04:25:35.659Z,44.08
2023-02-16T04:28:01.854Z,40.17
2023-02-16T04:30:29.811Z,43.53
2023-02-16T04:32:56.348Z,42.70
2023-02-16T04:35:22.746Z,44.17
2023-02-16T04:37:49.028Z,39.88
2023-02-16T04:40:16.187Z,43.75
2023-02-16T04:42:43.109Z,41.78
2023-02-16T04:45:09.784Z,42.15
2023-02-16T04:47:35.986Z,45.28
2023-02-16T04:50:02.333Z,45.13
2023-02-16T04:52:28.536Z,42.25
2023-02-16T04:54:54.739Z,47.72
2023-02-16T04:57:22.445Z,42.75
2023-02-16T04:59:48.650Z,45.08
2023-02-16T05:02:14.935Z,42.53
2023-02-16T05:04:42.109Z,44.97
2023-02-16T05:07:08.436Z,43.70
2023-02-16T05:09:34.627Z,40.17
2023-02-16T05:12:19.708Z,43.03
2023-02-16T05:14:46.148Z,42.72
2023-02-16T05:17:19.928Z,42.47
2023-02-16T05:19:47.841Z,42.65
2023-02-16T05:22:14.727Z,47.45
2023-02-16T05:24:41.173Z,41.92
2023-02-16T05:27:08.824Z,45.30
2023-02-16T05:29:35.053Z,42.85
2023-02-16T05:32:04.325Z,45.75
2023-02-16T05:34:31.148Z,42.33
2023-02-16T05:36:57.371Z,42.17
2023-02-16T05:39:23.586Z,42.92
2023-02-16T05:41:49.940Z,44.35
2023-02-16T05:44:16.327Z,46.15
2023-02-16T05:46:42.639Z,44.10
2023-02-16T05:49:09.307Z,41.45
2023-02-16T05:51:36.208Z,41.13
2023-02-16T05:54:02.516Z,41.47
2023-02-16T05:56:29.091Z,42.78
2023-02-16T05:58:55.624Z,43.45
2023-02-16T06:01:22.186Z,42.28
2023-02-16T06:03:48.432Z,46.40
2023-02-16T06:06:14.721Z,42.42
2023-02-16T06:08:41.108Z,43.63
2023-02-16T06:11:27.422Z,40.20
2023-02-16T06:13:57.824Z,40.97
2023-02-16T06:16:25.588Z,41.90
2023-02-16T06:18:51.876Z,46.65
2023-02-16T06:21:18.101Z,47.05
2023-02-16T06:23:44.328Z,44.30
2023-02-16T06:26:10.600Z,43.67
2023-02-16T06:28:36.848Z,47.72
2023-02-16T06:31:03.702Z,45.63
2023-02-16T06:33:30.274Z,41.63
2023-02-16T06:35:56.478Z,46.20
2023-02-16T06:38:22.817Z,43.30
2023-02-16T06:40:51.538Z,45.58
2023-02-16T06:43:17.731Z,42.72
2023-02-16T06:45:43.967Z,45.42
2023-02-16T06:48:10.177Z,46.47
2023-02-16T06:50:36.386Z,44.83
2023-02-16T06:53:02.588Z,46.83
2023-02-16T06:55:31.462Z,49.50
2023-02-16T06:57:57.740Z,44.40
2023-02-16T07:00:23.951Z,45.67
2023-02-16T07:02:51.139Z,43.22
2023-02-16T07:05:17.554Z,45.60
2023-02-16T07:07:43.750Z,49.03
2023-02-16T07:10:10.045Z,43.65
2023-02-16T07:12:36.292Z,46.42
2023-02-16T07:15:02.617Z,48.67
2023-02-16T07:17:28.859Z,43.00
2023-02-16T07:19:55.077Z,42.80
2023-02-16T07:22:21.289Z,46.28
2023-02-16T07:24:47.497Z,41.90
2023-02-16T07:27:13.745Z,43.90
2023-02-16T07:29:40.000Z,45.63
2023-02-16T07:32:06.337Z,45.63
2023-02-16T07:34:32.683Z,42.17
2023-02-16T07:36:58.908Z,42.45
2023-02-16T07:39:25.124Z,43.15
2023-02-16T07:41:51.397Z,44.08
2023-02-16T07:44:17.621Z,49.05
2023-02-16T07:46:43.837Z,43.53
2023-02-16T07:49:10.026Z,48.05
2023-02-16T07:51:36.254Z,46.47
2023-02-16T07:54:02.575Z,44.45
2023-02-16T07:56:30.190Z,48.22
2023-02-16T07:58:57.105Z,46.42
2023-02-16T08:01:24.163Z,43.25
2023-02-16T08:03:50.795Z,46.28
2023-02-16T08:06:17.312Z,45.65
2023-02-16T08:08:43.885Z,47.22
2023-02-16T08:11:11.188Z,50.25
2023-02-16T08:13:37.445Z,47.05
2023-02-16T08:16:07.476Z,48.78
2023-02-16T08:18:33.797Z,47.08
2023-02-16T08:21:06.705Z,47.00
2023-02-16T08:23:32.922Z,55.35
2023-02-16T08:25:59.524Z,47.03
2023-02-16T08:28:28.482Z,43.60
2023-02-16T08:30:55.279Z,44.60
2023-02-16T08:33:21.500Z,46.20
2023-02-16T08:35:48.282Z,48.22
2023-02-16T08:38:17.005Z,44.13
2023-02-16T08:40:47.238Z,42.55
2023-02-16T08:43:13.448Z,49.70
2023-02-16T08:45:43.724Z,45.00
2023-02-16T08:48:09.984Z,48.03
2023-02-16T08:50:36.820Z,46.60
2023-02-16T08:53:03.035Z,45.58
2023-02-16T08:55:29.229Z,47.85
2023-02-16T08:57:55.666Z,40.85
2023-02-16T09:00:33.996Z,43.00
2023-02-16T09:03:00.667Z,42.25
2023-02-16T09:05:28.028Z,44.33
2023-02-16T09:07:54.233Z,44.42
2023-02-16T09:10:23.581Z,41.45
2023-02-16T09:12:50.667Z,43.08
2023-02-16T09:15:16.897Z,40.95
2023-02-16T09:17:43.148Z,38.78
2023-02-16T09:20:10.116Z,38.15
2023-02-16T09:22:36.732Z,41.20
2023-02-16T09:25:02.961Z,42.45
2023-02-16T09:27:29.409Z,44.10
2023-02-16T09:29:55.620Z,38.03
2023-02-16T09:32:22.739Z,39.95
2023-02-16T09:34:50.089Z,39.42
2023-02-16T09:37:16.325Z,43.50
2023-02-16T09:39:42.558Z,42.47
2023-02-16T09:42:21.304Z,36.55
2023-02-16T09:44:58.287Z,40.35
2023-02-16T09:47:29.214Z,35.72
2023-02-16T09:49:56.905Z,40.53
2023-02-16T09:52:27.657Z,34.42
2023-02-16T09:54:55.750Z,39.15
2023-02-16T09:57:22.050Z,39.65
2023-02-16T10:00:04.361Z,35.08
2023-02-16T10:02:37.753Z,35.58
2023-02-16T10:05:13.522Z,35.35
2023-02-16T10:07:39.748Z,43.17
2023-02-16T10:10:07.544Z,37.22
2023-02-16T10:12:38.336Z,38.38
2023-02-16T10:15:13.994Z,37.70
2023-02-16T10:17:53.984Z,40.10
2023-02-16T10:20:37.111Z,37.53
2023-02-16T10:23:18.676Z,41.05
2023-02-16T10:28:19.493Z,37.95
2023-02-16T10:31:10.187Z,39.13
2023-02-16T10:33:43.420Z,37.97
2023-02-16T10:36:22.763Z,37.22
2023-02-16T10:38:55.673Z,39.10
2023-02-16T10:41:26.118Z,38.05
2023-02-16T10:44:12.873Z,41.90
2023-02-16T10:46:41.711Z,39.75
2023-02-16T10:49:11.642Z,34.10
2023-02-16T10:51:40.366Z,37.78
2023-02-16T10:54:10.356Z,36.00
2023-02-16T10:56:53.966Z,37.47
2023-02-16T10:59:25.048Z,33.63
2023-02-16T11:01:53.850Z,46.08
2023-02-16T11:04:29.499Z,42.85
2023-02-16T11:07:06.477Z,38.65
2023-02-16T11:09:32.987Z,34.70
2023-02-16T11:11:59.622Z,36.55
2023-02-16T11:14:30.238Z,39.22
2023-02-16T11:17:23.333Z,38.77
2023-02-16T11:19:52.317Z,39.33
2023-02-16T11:22:45.692Z,36.08
2023-02-16T11:25:17.950Z,40.35
2023-02-16T11:27:52.258Z,39.60
2023-02-16T11:30:23.248Z,40.67
2023-02-16T11:32:51.343Z,40.53
2023-02-16T11:35:17.808Z,35.50
2023-02-16T11:37:44.053Z,39.22
2023-02-16T11:40:19.715Z,40.55
2023-02-16T11:42:47.800Z,38.05
2023-02-16T11:45:26.780Z,37.25
2023-02-16T11:47:57.941Z,37.60
2023-02-16T11:50:28.402Z,39.05
2023-02-16T11:52:56.626Z,40.67
2023-02-16T11:55:22.962Z,36.55
2023-02-16T11:57:49.632Z,34.15
2023-02-16T12:00:21.880Z,34.28
2023-02-16T12:02:54.522Z,36.40
2023-02-16T12:05:43.480Z,44.00
2023-02-16T12:08:22.098Z,39.42
2023-02-16T12:11:06.234Z,37.78
2023-02-16T12:13:32.615Z,38.65
2023-02-16T12:16:07.385Z,39.40
2023-02-16T12:18:39.724Z,36.50
2023-02-16T12:21:24.834Z,34.17
2023-02-16T12:23:59.900Z,35.00
2023-02-16T12:26:36.559Z,36.13
2023-02-16T12:29:16.176Z,35.33
2023-02-16T12:31:50.396Z,37.78
2023-02-16T12:34:28.363Z,35.90
2023-02-16T12:37:13.847Z,40.53
2023-02-16T12:39:55.404Z,33.40
2023-02-16T12:42:30.569Z,35.20
2023-02-16T12:44:59.362Z,36.70
2023-02-16T12:47:29.041Z,36.90
2023-02-16T12:49:57.400Z,35.67
2023-02-16T12:52:26.411Z,36.53
2023-02-16T12:54:55.365Z,37.95
2023-02-16T12:57:24.473Z,36.67
2023-02-16T12:59:57.276Z,42.00
2023-02-16T13:02:27.305Z,40.88
2023-02-16T13:05:00.942Z,36.75
2023-02-16T13:07:38.720Z,34.45
2023-02-16T13:10:11.044Z,35.45
2023-02-16T13:12:40.236Z,40.35
2023-02-16T13:15:11.972Z,37.15
2023-02-16T13:17:47.059Z,33.90
2023-02-16T13:20:15.235Z,37.38
2023-02-16T13:23:00.190Z,34.88
2023-02-16T13:25:26.746Z,35.17
2023-02-16T13:28:04.459Z,33.80
2023-02-16T13:30:48.461Z,36.72
2023-02-16T13:33:37.542Z,36.50
2023-02-16T13:36:10.480Z,34.72
2023-02-16T13:38:49.095Z,32.15
2023-02-16T13:41:15.291Z,35.25
2023-02-16T13:43:50.224Z,39.50
2023-02-16T13:46:23.674Z,33.85
2023-02-16T13:48:50.680Z,33.08
2023-02-16T13:51:18.499Z,29.45
2023-02-16T13:53:50.662Z,29.55
2023-02-16T13:56:24.702Z,32.08
2023-02-16T13:58:51.768Z,33.30
2023-02-16T14:01:27.377Z,31.60
2023-02-16T14:03:54.306Z,29.40
2023-02-16T14:06:32.140Z,28.52
2023-02-16T14:09:10.340Z,28.45
2023-02-16T14:11:55.019Z,31.27
2023-02-16T14:14:28.640Z,29.48
2023-02-16T14:16:54.864Z,24.05
2023-02-16T14:19:25.784Z,25.27
2023-02-16T14:21:52.455Z,24.05
2023-02-16T14:24:21.753Z,22.75
2023-02-16T14:26:52.614Z,25.92
2023-02-16T14:29:21.022Z,21.08
2023-02-16T14:32:00.083Z,19.55
2023-02-16T14:34:28.490Z,20.00
2023-02-16T14:37:13.429Z,18.20
2023-02-16T14:39:58.560Z,18.92
2023-02-16T14:42:31.637Z,17.27
2023-02-16T14:45:19.719Z,20.20
2023-02-16T14:48:05.572Z,21.15
2023-02-16T14:50:31.867Z,20.45
2023-02-16T14:53:07.462Z,17.73
2023-02-16T14:55:33.771Z,18.80
2023-02-16T14:58:17.822Z,21.88
2023-02-16T15:00:46.669Z,15.82
2023-02-16T15:03:22.336Z,17.40
2023-02-16T15:05:51.145Z,18.67
2023-02-16T15:08:22.387Z,17.25
2023-02-16T15:10:53.961Z,21.25
2023-02-16T15:15:48.585Z,17.05
2023-02-16T15:18:35.560Z,18.40
2023-02-16T15:21:02.378Z,17.02
2023-02-16T15:23:30.663Z,16.95
2023-02-16T15:25:56.848Z,17.40
2023-02-16T15:28:27.361Z,14.90
2023-02-16T15:30:58.390Z,17.20
2023-02-16T15:33:24.716Z,15.10
2023-02-16T15:36:01.330Z,16.80
2023-02-16T15:38:31.703Z,17.02
2023-02-16T15:40:59.529Z,13.52
2023-02-16T15:43:30.704Z,15.10
2023-02-16T15:45:57.563Z,14.57
2023-02-16T15:48:26.028Z,16.48
2023-02-16T15:50:53.629Z,11.25
2023-02-16T15:53:24.356Z,15.43
2023-02-16T15:55:51.496Z,14.60
2023-02-16T15:58:17.896Z,14.32
2023-02-16T16:00:45.045Z,13.60
2023-02-16T16:03:15.461Z,15.65
2023-02-16T16:05:43.413Z,23.88
2023-02-16T16:08:12.906Z,15.43
2023-02-16T16:10:41.917Z,13.00
2023-02-16T16:13:12.504Z,15.20
2023-02-16T16:15:40.744Z,18.92
2023-02-16T16:18:26.994Z,14.13
2023-02-16T16:21:02.487Z,10.73
2023-02-16T16:23:29.438Z,11.65
2023-02-16T16:25:55.746Z,12.25
2023-02-16T16:28:24.671Z,11.55
2023-02-16T16:31:05.909Z,12.15
2023-02-16T16:34:01.478Z,11.02
2023-02-16T16:36:35.092Z,11.27
2023-02-16T16:39:09.289Z,15.68
2023-02-16T16:41:35.530Z,12.80
2023-02-16T16:44:01.864Z,11.95
2023-02-16T16:46:29.152Z,14.25
2023-02-16T16:49:04.353Z,13.32
2023-02-16T16:51:31.526Z,12.40
2023-02-16T16:54:02.218Z,11.25
2023-02-16T16:56:28.961Z,12.27
2023-02-16T16:58:56.825Z,18.52
2023-02-16T17:01:23.494Z,12.88
2023-02-16T17:03:50.081Z,15.98
2023-02-16T17:06:17.559Z,13.70
2023-02-16T17:08:43.904Z,14.48
2023-02-16T17:11:27.061Z,19.88
2023-02-16T17:13:54.753Z,14.02
2023-02-16T17:16:24.302Z,14.68
2023-02-16T17:18:50.527Z,19.42
2023-02-16T17:21:16.726Z,19.80
2023-02-16T17:23:52.236Z,18.42
2023-02-16T17:26:18.671Z,15.57
2023-02-16T17:28:44.898Z,19.23
2023-02-16T17:31:11.117Z,20.08
2023-02-16T17:33:37.430Z,15.55
2023-02-16T17:36:05.479Z,13.82
2023-02-16T17:38:32.098Z,15.75
2023-02-16T17:40:58.371Z,21.33
2023-02-16T17:43:25.790Z,19.58
2023-02-16T17:45:53.082Z,17.40
2023-02-16T17:48:21.247Z,21.30
2023-02-16T17:50:49.122Z,14.85
2023-02-16T17:53:16.060Z,19.27
2023-02-16T17:55:42.891Z,20.23
2023-02-16T17:58:10.273Z,16.45
2023-02-16T18:00:36.591Z,19.67
2023-02-16T18:03:02.948Z,18.35
2023-02-16T18:05:29.202Z,20.13
2023-02-16T18:07:55.918Z,18.13
2023-02-16T18:10:33.357Z,20.70
2023-02-16T18:12:59.549Z,17.80
2023-02-16T18:15:25.778Z,25.17
2023-02-16T18:17:53.902Z,20.50
2023-02-16T18:20:21.605Z,18.25
2023-02-16T18:22:47.796Z,20.17
2023-02-16T18:25:14.042Z,15.38
2023-02-16T18:27:40.346Z,18.92
2023-02-16T18:30:06.973Z,18.65
2023-02-16T18:32:33.191Z,20.25
2023-02-16T18:34:59.404Z,21.75
2023-02-16T18:37:25.905Z,19.75
2023-02-16T18:39:52.118Z,17.27
2023-02-16T18:42:18.452Z,19.60
2023-02-16T18:44:47.904Z,19.98
2023-02-16T18:47:14.594Z,23.52
2023-02-16T18:49:41.804Z,18.25
2023-02-16T18:52:08.789Z,22.00
2023-02-16T18:54:35.304Z,21.30
2023-02-16T18:57:01.526Z,20.77
2023-02-16T18:59:27.758Z,22.85
2023-02-16T19:01:55.074Z,22.08
2023-02-16T19:04:21.301Z,22.15
2023-02-16T19:06:47.559Z,19.05
2023-02-16T19:09:13.753Z,19.63
2023-02-16T19:11:40.178Z,18.85
2023-02-16T19:14:06.406Z,18.20
2023-02-16T19:16:32.621Z,17.10
2023-02-16T19:18:58.829Z,21.02
2023-02-16T19:21:25.019Z,21.55
2023-02-16T19:23:51.229Z,20.02
2023-02-16T19:26:18.728Z,20.23
2023-02-16T19:28:45.032Z,21.23
2023-02-16T19:31:18.992Z,20.33
2023-02-16T19:33:45.612Z,19.90
2023-02-16T19:36:12.862Z,19.02
2023-02-16T19:38:39.059Z,19.75
2023-02-16T19:41:13.281Z,17.17
2023-02-16T19:43:39.868Z,14.07
2023-02-16T19:46:06.625Z,14.88
2023-02-16T19:48:33.342Z,14.52
2023-02-16T19:51:00.809Z,15.70
2023-02-16T19:53:27.550Z,11.65
2023-02-16T19:55:54.668Z,15.55
2023-02-16T19:58:21.319Z,14.88
2023-02-16T20:00:47.857Z,17.88
2023-02-16T20:03:14.361Z,15.00
2023-02-16T20:05:40.565Z,14.38
2023-02-16T20:08:06.766Z,13.98
2023-02-16T20:10:33.808Z,12.15
2023-02-16T20:13:00.362Z,14.75
2023-02-16T20:15:26.856Z,12.43
2023-02-16T20:17:55.542Z,15.45
2023-02-16T20:20:22.074Z,15.25
2023-02-16T20:22:48.359Z,14.70
2023-02-16T20:25:14.731Z,11.52
2023-02-16T20:27:41.313Z,11.95
2023-02-16T20:30:08.282Z,17.08
2023-02-16T20:32:34.608Z,13.32
2023-02-16T20:35:05.104Z,14.02
2023-02-16T20:37:31.350Z,15.98
2023-02-16T20:39:57.555Z,14.25
2023-02-16T20:42:23.870Z,12.07
2023-02-16T20:44:50.091Z,15.65
2023-02-16T20:47:16.375Z,11.85
2023-02-16T20:49:42.593Z,11.30
2023-02-16T20:52:10.465Z,12.00
2023-02-16T20:54:37.570Z,12.82
2023-02-16T20:57:04.715Z,14.18
2023-02-16T20:59:31.248Z,16.10
2023-02-16T21:01:57.917Z,11.77
2023-02-16T21:04:24.220Z,13.88
2023-02-16T21:06:50.474Z,14.77
2023-02-16T21:09:16.988Z,13.95
2023-02-16T21:11:43.471Z,13.93
2023-02-16T21:14:10.546Z,13.73
2023-02-16T21:16:37.226Z,16.50
2023-02-16T21:19:07.360Z,14.73
2023-02-16T21:21:41.434Z,14.48
2023-02-16T21:24:07.671Z,13.07
2023-02-16T21:26:33.853Z,15.18
2023-02-16T21:29:00.139Z,13.85
2023-02-16T21:31:26.574Z,19.00
2023-02-16T21:33:52.902Z,13.48
2023-02-16T21:36:20.659Z,13.30
2023-02-16T21:38:47.360Z,13.75
2023-02-16T21:41:27.559Z,15.40
2023-02-16T21:44:09.990Z,12.80
2023-02-16T21:46:40.775Z,16.67
2023-02-16T21:49:08.821Z,16.27
2023-02-16T21:51:36.526Z,13.68
2023-02-16T21:54:04.767Z,13.38
2023-02-16T21:56:39.089Z,13.70
2023-02-16T21:59:07.407Z,13.93
2023-02-16T22:01:35.388Z,12.02
2023-02-16T22:04:02.154Z,14.07
2023-02-16T22:06:32.271Z,15.32
2023-02-16T22:08:59.157Z,12.77
2023-02-16T22:11:25.426Z,14.40
2023-02-16T22:13:55.005Z,15.73
2023-02-16T22:16:21.667Z,13.40
2023-02-16T22:18:48.852Z,12.07
2023-02-16T22:21:15.405Z,12.77
2023-02-16T22:23:41.625Z,12.45
2023-02-16T22:26:08.228Z,13.85
2023-02-16T22:28:35.498Z,13.88
2023-02-16T22:31:08.427Z,12.05
2023-02-16T22:33:35.298Z,14.35
2023-02-16T22:36:05.875Z,17.83
2023-02-16T22:38:32.217Z,12.93
2023-02-16T22:40:58.482Z,13.60
2023-02-16T22:43:24.676Z,15.18
2023-02-16T22:45:50.922Z,13.73
2023-02-16T22:48:17.208Z,11.98
2023-02-16T22:50:43.421Z,14.80
2023-02-16T22:53:09.625Z,15.63
2023-02-16T22:55:35.827Z,15.98
2023-02-16T22:58:02.028Z,13.75
2023-02-16T23:00:28.248Z,15.48
2023-02-16T23:02:54.439Z,14.68
2023-02-16T23:05:20.674Z,14.32
2023-02-16T23:07:46.879Z,14.57
2023-02-16T23:10:13.506Z,17.98
2023-02-16T23:12:39.767Z,15.30
2023-02-16T23:15:06.223Z,16.08
2023-02-16T23:17:32.435Z,14.75
2023-02-16T23:19:58.636Z,14.90
2023-02-16T23:22:24.843Z,13.95
2023-02-16T23:25:11.041Z,14.13
2023-02-16T23:27:38.342Z,15.82
2023-02-16T23:30:04.844Z,16.70
2023-02-16T23:32:31.063Z,13.90
2023-02-16T23:34:59.618Z,16.30
2023-02-16T23:37:29.861Z,11.38
2023-02-16T23:39:56.115Z,12.85
2023-02-16T23:42:22.653Z,11.55
2023-02-16T23:44:48.894Z,13.70
2023-02-16T23:47:15.104Z,13.40
2023-02-16T23:49:41.343Z,13.32
2023-02-16T23:52:07.544Z,11.82
2023-02-16T23:54:33.746Z,12.75
2023-02-16T23:56:59.981Z,12.65
2023-02-16T23:59:26.269Z,10.23
